createdAt,value
2022-12-29T00:02:01.612Z,1.53
2022-12-29T00:04:28.454Z,1.17
2022-12-29T00:06:56.770Z,1.40
2022-12-29T00:09:23.585Z,1.57
2022-12-29T00:11:51.171Z,1.10
2022-12-29T00:14:36.352Z,1.50
2022-12-29T00:17:03.144Z,1.20
2022-12-29T00:19:48.390Z,3.37
2022-12-29T00:22:34.318Z,1.00
2022-12-29T00:25:01.259Z,1.10
2022-12-29T00:27:47.298Z,0.97
2022-12-29T00:30:41.007Z,1.90
2022-12-29T00:33:33.468Z,1.07
2022-12-29T00:36:14.715Z,1.03
2022-12-29T00:39:03.151Z,0.70
2022-12-29T00:41:48.791Z,1.40
2022-12-29T00:44:15.682Z,2.37
2022-12-29T00:46:43.544Z,1.20
2022-12-29T00:49:31.838Z,1.40
2022-12-29T00:52:04.649Z,1.87
2022-12-29T00:54:36.927Z,1.70
2022-12-29T00:57:06.039Z,1.43
2022-12-29T00:59:32.808Z,0.50
2022-12-29T01:01:59.853Z,1.00
2022-12-29T01:04:27.442Z,1.90
2022-12-29T01:06:54.853Z,0.63
2022-12-29T01:09:40.877Z,0.57
2022-12-29T01:12:08.647Z,1.43
2022-12-29T01:14:36.366Z,0.80
2022-12-29T01:17:03.126Z,0.87
2022-12-29T01:19:29.882Z,1.10
2022-12-29T01:21:56.742Z,2.47
2022-12-29T01:24:23.918Z,0.87
2022-12-29T01:26:50.954Z,2.20
2022-12-29T01:29:18.319Z,1.33
2022-12-29T01:31:45.093Z,2.10
2022-12-29T01:34:12.014Z,1.43
2022-12-29T01:36:38.856Z,1.10
2022-12-29T01:39:05.544Z,1.43
2022-12-29T01:41:32.585Z,1.63
2022-12-29T01:44:01.920Z,1.07
2022-12-29T01:46:39.863Z,1.93
2022-12-29T01:49:13.029Z,1.33
2022-12-29T01:51:44.523Z,1.97
2022-12-29T01:54:20.521Z,1.33
2022-12-29T01:56:48.364Z,0.83
2022-12-29T01:59:21.870Z,0.67
2022-12-29T02:01:49.324Z,1.00
2022-12-29T02:04:16.374Z,1.20
2022-12-29T02:06:54.299Z,3.30
2022-12-29T02:09:22.849Z,2.73
2022-12-29T02:11:49.954Z,0.60
2022-12-29T02:14:17.015Z,3.83
2022-12-29T02:16:59.319Z,1.20
2022-12-29T02:19:38.597Z,1.00
2022-12-29T02:22:14.240Z,1.17
2022-12-29T02:25:04.501Z,1.90
2022-12-29T02:27:56.297Z,3.60
2022-12-29T02:30:41.548Z,2.77
2022-12-29T02:33:39.348Z,2.57
2022-12-29T02:36:20.651Z,3.40
2022-12-29T02:39:10.278Z,0.87
2022-12-29T02:42:10.524Z,1.77
2022-12-29T02:44:55.751Z,5.50
2022-12-29T02:47:37.808Z,1.07
2022-12-29T02:50:35.934Z,1.37
2022-12-29T02:53:18.511Z,2.00
2022-12-29T02:55:53.285Z,2.53
2022-12-29T02:58:23.670Z,2.60
2022-12-29T03:01:17.441Z,1.13
2022-12-29T03:04:06.616Z,2.00
2022-12-29T03:06:57.727Z,2.03
2022-12-29T03:09:28.211Z,0.57
2022-12-29T03:12:21.740Z,2.40
2022-12-29T03:15:32.674Z,1.33
2022-12-29T03:18:04.582Z,1.60
2022-12-29T03:20:45.741Z,1.60
2022-12-29T03:23:14.656Z,2.40
2022-12-29T03:25:45.961Z,0.70
2022-12-29T03:28:23.364Z,2.27
2022-12-29T03:30:50.112Z,1.07
2022-12-29T03:33:21.580Z,2.03
2022-12-29T03:35:50.023Z,0.60
2022-12-29T03:38:32.365Z,3.80
2022-12-29T03:41:02.038Z,2.43
2022-12-29T03:43:30.330Z,1.53
2022-12-29T03:45:57.310Z,2.53
2022-12-29T03:48:24.028Z,2.20
2022-12-29T03:50:50.786Z,2.53
2022-12-29T03:53:17.536Z,3.43
2022-12-29T03:55:45.565Z,1.53
2022-12-29T03:58:12.462Z,2.30
2022-12-29T04:00:39.243Z,2.50
2022-12-29T04:03:06.062Z,1.60
2022-12-29T04:05:32.971Z,2.07
2022-12-29T04:07:59.768Z,0.90
2022-12-29T04:10:26.574Z,2.43
2022-12-29T04:12:53.324Z,1.70
2022-12-29T04:15:20.119Z,3.03
2022-12-29T04:17:46.841Z,4.10
2022-12-29T04:20:32.419Z,3.47
2022-12-29T04:23:07.059Z,1.07
2022-12-29T04:25:34.477Z,1.33
2022-12-29T04:28:01.399Z,2.50
2022-12-29T04:30:28.094Z,1.30
2022-12-29T04:32:55.557Z,2.30
2022-12-29T04:35:22.325Z,3.70
2022-12-29T04:37:49.037Z,0.60
2022-12-29T04:40:15.795Z,2.97
2022-12-29T04:42:43.561Z,3.67
2022-12-29T04:45:10.776Z,2.97
2022-12-29T04:47:37.479Z,3.97
2022-12-29T04:50:05.223Z,4.00
2022-12-29T04:52:31.914Z,3.93
2022-12-29T04:54:58.710Z,2.43
2022-12-29T04:57:25.476Z,2.23
2022-12-29T04:59:52.197Z,4.17
2022-12-29T05:02:19.310Z,7.03
2022-12-29T05:04:46.907Z,3.77
2022-12-29T05:07:13.891Z,1.03
2022-12-29T05:09:41.181Z,2.47
2022-12-29T05:12:08.033Z,2.37
2022-12-29T05:14:34.856Z,3.60
2022-12-29T05:17:01.566Z,5.77
2022-12-29T05:19:28.298Z,3.43
2022-12-29T05:21:55.463Z,4.30
2022-12-29T05:24:22.225Z,3.57
2022-12-29T05:26:48.981Z,3.03
2022-12-29T05:29:15.811Z,3.57
2022-12-29T05:31:45.075Z,2.30
2022-12-29T05:34:15.130Z,3.13
2022-12-29T05:36:41.882Z,2.87
2022-12-29T05:39:08.740Z,2.63
2022-12-29T05:41:36.190Z,3.40
2022-12-29T05:44:03.065Z,3.80
2022-12-29T05:46:30.047Z,5.40
2022-12-29T05:48:56.876Z,3.73
2022-12-29T05:51:23.697Z,4.77
2022-12-29T05:53:50.750Z,3.97
2022-12-29T05:56:17.629Z,2.03
2022-12-29T05:58:44.332Z,2.47
2022-12-29T06:01:11.047Z,3.50
2022-12-29T06:03:40.666Z,1.63
2022-12-29T06:06:09.818Z,3.20
2022-12-29T06:08:36.576Z,4.33
2022-12-29T06:11:03.473Z,4.57
2022-12-29T06:13:30.153Z,6.10
2022-12-29T06:15:56.894Z,4.10
2022-12-29T06:18:23.678Z,3.80
2022-12-29T06:20:50.422Z,2.83
2022-12-29T06:23:17.572Z,3.47
2022-12-29T06:25:44.305Z,3.40
2022-12-29T06:28:11.759Z,3.90
2022-12-29T06:30:39.046Z,3.97
2022-12-29T06:33:05.711Z,4.73
2022-12-29T06:35:32.626Z,1.20
2022-12-29T06:37:59.292Z,3.57
2022-12-29T06:40:25.977Z,3.43
2022-12-29T06:42:52.661Z,3.07
2022-12-29T06:45:19.392Z,7.10
2022-12-29T06:47:46.098Z,4.83
2022-12-29T06:50:12.862Z,2.63
2022-12-29T06:52:39.645Z,2.77
2022-12-29T06:55:07.192Z,5.43
2022-12-29T06:57:33.949Z,1.67
2022-12-29T07:00:00.698Z,3.23
2022-12-29T07:02:27.633Z,4.37
2022-12-29T07:04:54.549Z,2.20
2022-12-29T07:07:22.045Z,2.97
2022-12-29T07:09:48.889Z,4.00
2022-12-29T07:12:15.857Z,4.00
2022-12-29T07:14:43.650Z,6.73
2022-12-29T07:17:10.809Z,5.33
2022-12-29T07:19:37.580Z,2.97
2022-12-29T07:22:04.317Z,4.07
2022-12-29T07:24:31.032Z,7.37
2022-12-29T07:26:57.988Z,4.23
2022-12-29T07:29:25.305Z,5.03
2022-12-29T07:31:52.171Z,3.00
2022-12-29T07:34:19.105Z,5.80
2022-12-29T07:36:45.888Z,3.97
2022-12-29T07:39:12.684Z,1.77
2022-12-29T07:41:39.451Z,3.30
2022-12-29T07:44:06.327Z,2.10
2022-12-29T07:46:54.219Z,5.33
2022-12-29T07:49:19.725Z,6.50
2022-12-29T07:51:46.487Z,5.90
2022-12-29T07:54:13.677Z,7.20
2022-12-29T07:56:40.703Z,7.57
2022-12-29T07:59:07.424Z,2.80
2022-12-29T08:01:34.314Z,3.03
2022-12-29T08:04:01.251Z,5.83
2022-12-29T08:06:28.194Z,6.87
2022-12-29T08:08:57.202Z,3.80
2022-12-29T08:11:24.428Z,5.00
2022-12-29T08:13:51.229Z,2.93
2022-12-29T08:16:18.290Z,8.97
2022-12-29T08:18:45.457Z,4.53
2022-12-29T08:21:12.215Z,2.67
2022-12-29T08:23:39.507Z,7.83
2022-12-29T08:26:07.126Z,2.83
2022-12-29T08:28:34.383Z,9.13
2022-12-29T08:31:03.007Z,6.03
2022-12-29T08:33:30.562Z,3.37
2022-12-29T08:36:02.016Z,6.77
2022-12-29T08:38:30.023Z,4.63
2022-12-29T08:40:57.969Z,6.00
2022-12-29T08:43:25.251Z,6.70
2022-12-29T08:45:52.098Z,3.53
2022-12-29T08:48:20.707Z,6.70
2022-12-29T08:50:47.879Z,5.00
2022-12-29T08:53:14.759Z,6.67
2022-12-29T08:55:41.754Z,6.73
2022-12-29T08:58:08.473Z,4.53
2022-12-29T09:00:36.091Z,3.40
2022-12-29T09:03:03.004Z,6.57
2022-12-29T09:05:29.861Z,5.70
2022-12-29T09:07:56.555Z,12.50
2022-12-29T09:10:23.297Z,6.97
2022-12-29T09:12:50.163Z,4.80
2022-12-29T09:15:17.106Z,6.63
2022-12-29T09:17:46.624Z,2.73
2022-12-29T09:20:16.082Z,6.23
2022-12-29T09:22:44.149Z,6.60
2022-12-29T09:25:11.731Z,10.13
2022-12-29T09:27:38.840Z,2.57
2022-12-29T09:30:07.414Z,6.40
2022-12-29T09:32:37.936Z,5.40
2022-12-29T09:35:08.996Z,6.40
2022-12-29T09:37:35.769Z,4.67
2022-12-29T09:40:02.633Z,3.17
2022-12-29T09:43:00.350Z,4.90
2022-12-29T09:45:43.351Z,4.23
2022-12-29T09:48:19.115Z,2.40
2022-12-29T09:50:50.907Z,7.00
2022-12-29T09:54:02.173Z,5.67
2022-12-29T09:56:29.313Z,5.53
2022-12-29T09:59:17.734Z,4.60
2022-12-29T10:02:23.019Z,6.13
2022-12-29T10:04:50.093Z,5.20
2022-12-29T10:07:53.073Z,6.07
2022-12-29T10:11:18.674Z,7.00
2022-12-29T10:14:27.088Z,6.67
2022-12-29T10:17:02.562Z,5.13
2022-12-29T10:19:41.464Z,5.83
2022-12-29T10:22:56.162Z,5.13
2022-12-29T10:25:28.418Z,3.73
2022-12-29T10:28:02.221Z,5.33
2022-12-29T10:30:29.776Z,8.40
2022-12-29T10:33:02.184Z,7.47
2022-12-29T10:35:36.958Z,2.77
2022-12-29T10:38:30.172Z,5.23
2022-12-29T10:41:09.852Z,8.90
2022-12-29T10:43:53.937Z,5.67
2022-12-29T10:46:26.053Z,6.97
2022-12-29T10:48:52.821Z,4.83
2022-12-29T10:51:24.952Z,5.10
2022-12-29T10:54:03.279Z,6.10
2022-12-29T10:57:05.372Z,8.00
2022-12-29T10:59:36.855Z,8.13
2022-12-29T11:02:12.369Z,5.13
2022-12-29T11:04:51.230Z,3.83
2022-12-29T11:07:25.029Z,6.30
2022-12-29T11:09:53.624Z,10.07
2022-12-29T11:12:31.658Z,8.37
2022-12-29T11:15:08.526Z,8.03
2022-12-29T11:17:45.875Z,6.77
2022-12-29T11:20:34.689Z,6.23
2022-12-29T11:23:02.375Z,4.90
2022-12-29T11:25:29.400Z,10.50
2022-12-29T11:28:14.784Z,6.80
2022-12-29T11:30:42.332Z,10.00
2022-12-29T11:33:10.399Z,5.37
2022-12-29T11:35:45.407Z,5.97
2022-12-29T11:38:36.847Z,5.63
2022-12-29T11:41:05.748Z,9.43
2022-12-29T11:43:35.826Z,9.83
2022-12-29T11:46:05.949Z,5.33
2022-12-29T11:48:42.714Z,9.33
2022-12-29T11:51:10.758Z,15.27
2022-12-29T11:53:43.904Z,8.67
2022-12-29T11:56:17.277Z,6.37
2022-12-29T11:58:44.727Z,9.53
2022-12-29T12:01:44.116Z,12.97
2022-12-29T12:04:18.364Z,4.23
2022-12-29T12:07:08.436Z,11.03
2022-12-29T12:09:49.440Z,5.97
2022-12-29T12:12:45.213Z,5.50
2022-12-29T12:15:21.028Z,9.03
2022-12-29T12:18:21.337Z,7.27
2022-12-29T12:21:45.861Z,7.10
2022-12-29T12:24:40.656Z,6.90
2022-12-29T12:27:17.447Z,11.63
2022-12-29T12:29:48.184Z,7.00
2022-12-29T12:32:43.772Z,5.60
2022-12-29T12:35:24.126Z,8.10
2022-12-29T12:37:56.514Z,6.67
2022-12-29T12:40:31.761Z,6.27
2022-12-29T12:43:35.015Z,6.00
2022-12-29T12:46:21.628Z,8.70
2022-12-29T12:49:02.068Z,5.87
2022-12-29T12:51:52.904Z,8.77
2022-12-29T12:54:43.860Z,6.90
2022-12-29T12:57:13.395Z,2.80
2022-12-29T12:59:49.273Z,5.53
2022-12-29T13:02:37.755Z,4.17
2022-12-29T13:05:19.975Z,7.60
2022-12-29T13:07:52.417Z,6.63
2022-12-29T13:10:42.396Z,2.40
2022-12-29T13:13:51.365Z,7.20
2022-12-29T13:16:30.099Z,4.97
2022-12-29T13:19:30.489Z,3.93
2022-12-29T13:22:31.859Z,5.63
2022-12-29T13:25:28.181Z,5.83
2022-12-29T13:27:58.049Z,6.07
2022-12-29T13:30:43.771Z,1.63
2022-12-29T13:33:21.786Z,2.70
2022-12-29T13:36:06.198Z,3.53
2022-12-29T13:38:40.980Z,3.10
2022-12-29T13:41:19.977Z,1.73
2022-12-29T13:43:48.455Z,1.10
2022-12-29T13:46:43.511Z,4.53
2022-12-29T13:49:22.834Z,1.53
2022-12-29T13:51:53.599Z,7.03
2022-12-29T13:54:26.947Z,2.53
2022-12-29T13:57:14.255Z,2.63
2022-12-29T13:59:49.904Z,1.83
2022-12-29T14:02:35.770Z,3.10
2022-12-29T14:05:04.945Z,3.73
2022-12-29T14:07:38.876Z,2.40
2022-12-29T14:10:06.620Z,5.07
2022-12-29T14:12:42.504Z,7.53
2022-12-29T14:15:12.277Z,7.20
2022-12-29T14:17:41.122Z,7.70
2022-12-29T14:20:20.557Z,5.77
2022-12-29T14:23:37.955Z,5.87
2022-12-29T14:26:07.663Z,4.47
2022-12-29T14:28:39.709Z,7.03
2022-12-29T14:31:15.798Z,4.83
2022-12-29T14:34:12.669Z,6.40
2022-12-29T14:36:54.602Z,4.10
2022-12-29T14:39:45.258Z,7.20
2022-12-29T14:42:11.975Z,6.13
2022-12-29T14:44:49.492Z,7.40
2022-12-29T14:47:33.610Z,5.43
2022-12-29T14:50:08.271Z,4.90
2022-12-29T14:52:53.997Z,4.87
2022-12-29T14:55:44.580Z,6.13
2022-12-29T14:58:23.106Z,5.47
2022-12-29T15:00:50.420Z,7.03
2022-12-29T15:03:46.212Z,6.03
2022-12-29T15:06:17.892Z,5.40
2022-12-29T15:09:28.257Z,8.90
2022-12-29T15:12:02.325Z,4.40
2022-12-29T15:14:48.878Z,4.83
2022-12-29T15:17:25.704Z,7.07
2022-12-29T15:19:53.146Z,5.00
2022-12-29T15:22:20.453Z,5.63
2022-12-29T15:24:47.629Z,3.87
2022-12-29T15:27:16.498Z,6.00
2022-12-29T15:29:45.844Z,5.43
2022-12-29T15:32:29.687Z,6.17
2022-12-29T15:35:03.973Z,3.13
2022-12-29T15:37:36.330Z,8.83
2022-12-29T15:40:03.325Z,5.13
2022-12-29T15:43:07.757Z,6.53
2022-12-29T15:45:36.700Z,5.30
2022-12-29T15:48:05.556Z,9.90
2022-12-29T15:50:38.222Z,2.23
2022-12-29T15:53:12.470Z,9.00
2022-12-29T15:55:41.458Z,3.63
2022-12-29T15:58:22.146Z,3.73
2022-12-29T16:00:51.611Z,2.33
2022-12-29T16:03:18.680Z,8.77
2022-12-29T16:05:57.225Z,6.07
2022-12-29T16:08:34.227Z,2.53
2022-12-29T16:11:03.248Z,1.43
2022-12-29T16:13:40.634Z,3.40
2022-12-29T16:16:19.172Z,2.43
2022-12-29T16:18:49.377Z,3.03
2022-12-29T16:21:36.364Z,3.53
2022-12-29T16:24:15.577Z,1.13
2022-12-29T16:26:49.806Z,3.77
2022-12-29T16:29:18.219Z,5.17
2022-12-29T16:32:01.495Z,3.80
2022-12-29T16:34:44.098Z,2.83
2022-12-29T16:37:29.674Z,2.10
2022-12-29T16:39:56.474Z,2.50
2022-12-29T16:42:56.006Z,4.97
2022-12-29T16:45:23.191Z,2.77
2022-12-29T16:48:23.417Z,2.17
2022-12-29T16:50:50.828Z,2.60
2022-12-29T16:53:27.869Z,3.77
2022-12-29T16:55:56.647Z,1.83
2022-12-29T16:58:28.664Z,10.17
2022-12-29T17:01:03.846Z,3.33
2022-12-29T17:03:43.379Z,2.80
2022-12-29T17:06:18.384Z,4.60
2022-12-29T17:08:46.369Z,2.70
2022-12-29T17:11:55.608Z,3.13
2022-12-29T17:14:36.929Z,3.60
2022-12-29T17:17:06.170Z,4.93
2022-12-29T17:19:35.874Z,4.77
2022-12-29T17:22:03.428Z,2.73
2022-12-29T17:24:30.604Z,3.73
2022-12-29T17:27:00.096Z,6.13
2022-12-29T17:29:45.275Z,2.57
2022-12-29T17:32:14.793Z,5.40
2022-12-29T17:34:42.348Z,4.07
2022-12-29T17:37:24.225Z,7.43
2022-12-29T17:39:51.519Z,5.13
2022-12-29T17:42:20.106Z,6.67
2022-12-29T17:44:47.181Z,4.47
2022-12-29T17:47:15.855Z,5.47
2022-12-29T17:49:46.299Z,5.30
2022-12-29T17:52:14.999Z,5.53
2022-12-29T17:54:51.022Z,5.50
2022-12-29T17:57:20.322Z,3.60
2022-12-29T17:59:49.950Z,7.27
2022-12-29T18:02:29.502Z,6.77
2022-12-29T18:04:58.016Z,4.57
2022-12-29T18:07:35.335Z,3.70
2022-12-29T18:10:02.817Z,8.37
2022-12-29T18:12:31.009Z,7.50
2022-12-29T18:14:58.812Z,8.83
2022-12-29T18:17:25.792Z,8.57
2022-12-29T18:19:54.826Z,7.40
2022-12-29T18:22:23.678Z,5.40
2022-12-29T18:24:51.041Z,5.83
2022-12-29T18:27:19.597Z,8.63
2022-12-29T18:29:47.042Z,5.53
2022-12-29T18:32:16.283Z,5.67
2022-12-29T18:34:43.710Z,7.60
2022-12-29T18:37:11.359Z,11.70
2022-12-29T18:39:38.520Z,7.83
2022-12-29T18:42:06.663Z,6.63
2022-12-29T18:44:34.339Z,7.40
2022-12-29T18:47:01.325Z,8.20
2022-12-29T18:49:28.353Z,6.33
2022-12-29T18:51:55.208Z,9.00
2022-12-29T18:54:31.124Z,6.63
2022-12-29T18:56:58.308Z,8.70
2022-12-29T18:59:25.600Z,5.40
2022-12-29T19:01:52.840Z,12.13
2022-12-29T19:04:19.964Z,9.13
2022-12-29T19:06:46.862Z,8.37
2022-12-29T19:09:14.002Z,13.67
2022-12-29T19:11:40.802Z,7.77
2022-12-29T19:14:14.872Z,8.70
2022-12-29T19:16:41.750Z,8.13
2022-12-29T19:19:14.023Z,5.57
2022-12-29T19:21:40.845Z,11.40
2022-12-29T19:24:07.688Z,6.07
2022-12-29T19:26:37.287Z,6.93
2022-12-29T19:29:06.824Z,9.77
2022-12-29T19:31:34.034Z,10.53
2022-12-29T19:34:03.048Z,9.73
2022-12-29T19:36:29.974Z,7.17
2022-12-29T19:38:57.025Z,8.47
2022-12-29T19:41:24.633Z,15.30
2022-12-29T19:43:51.445Z,6.77
2022-12-29T19:46:20.115Z,10.43
2022-12-29T19:48:47.309Z,13.27
2022-12-29T19:51:18.570Z,5.90
2022-12-29T19:53:46.484Z,16.23
2022-12-29T19:56:13.890Z,9.93
2022-12-29T19:58:46.655Z,6.73
2022-12-29T20:01:17.546Z,8.23
2022-12-29T20:03:44.947Z,8.97
2022-12-29T20:06:12.256Z,6.03
2022-12-29T20:08:39.728Z,8.43
2022-12-29T20:11:16.290Z,15.87
2022-12-29T20:13:43.362Z,9.70
2022-12-29T20:16:13.857Z,9.07
2022-12-29T20:18:41.661Z,9.73
2022-12-29T20:21:23.131Z,7.30
2022-12-29T20:23:51.705Z,6.73
2022-12-29T20:26:27.339Z,9.93
2022-12-29T20:28:55.126Z,12.03
2022-12-29T20:31:26.499Z,8.67
2022-12-29T20:33:53.791Z,7.50
2022-12-29T20:36:23.748Z,8.27
2022-12-29T20:38:52.427Z,13.97
2022-12-29T20:41:20.112Z,10.17
2022-12-29T20:43:46.898Z,17.63
2022-12-29T20:46:18.048Z,13.13
2022-12-29T20:48:47.477Z,12.50
2022-12-29T20:51:14.471Z,12.20
2022-12-29T20:53:41.285Z,7.57
2022-12-29T20:56:14.959Z,8.53
2022-12-29T20:59:17.006Z,13.80
2022-12-29T21:01:28.954Z,9.40
2022-12-29T21:03:55.927Z,10.63
2022-12-29T21:06:22.707Z,8.57
2022-12-29T21:08:50.979Z,5.03
2022-12-29T21:11:18.587Z,10.17
2022-12-29T21:13:45.572Z,9.90
2022-12-29T21:16:13.825Z,11.13
2022-12-29T21:18:40.709Z,7.57
2022-12-29T21:21:10.193Z,7.93
2022-12-29T21:23:40.236Z,5.63
2022-12-29T21:26:11.486Z,9.37
2022-12-29T21:28:39.472Z,5.73
2022-12-29T21:31:11.785Z,7.70
2022-12-29T21:33:38.651Z,4.87
2022-12-29T21:36:08.006Z,8.17
2022-12-29T21:38:37.736Z,6.17
2022-12-29T21:41:09.748Z,7.30
2022-12-29T21:43:37.375Z,5.97
2022-12-29T21:46:05.253Z,7.43
2022-12-29T21:48:32.966Z,9.13
2022-12-29T21:51:30.937Z,8.40
2022-12-29T21:54:20.112Z,8.13
2022-12-29T21:56:48.387Z,12.30
2022-12-29T21:59:35.290Z,7.67
2022-12-29T22:02:22.965Z,6.93
2022-12-29T22:05:08.448Z,7.50
2022-12-29T22:07:53.818Z,5.87
2022-12-29T22:10:39.429Z,5.50
2022-12-29T22:13:06.186Z,7.30
2022-12-29T22:15:35.940Z,5.47
2022-12-29T22:18:04.214Z,6.70
2022-12-29T22:20:33.867Z,9.13
2022-12-29T22:23:01.129Z,6.77
2022-12-29T22:25:28.200Z,6.53
2022-12-29T22:27:59.182Z,7.87
2022-12-29T22:30:29.761Z,9.57
2022-12-29T22:33:01.460Z,8.80
2022-12-29T22:35:28.512Z,7.20
2022-12-29T22:37:55.333Z,6.03
2022-12-29T22:40:22.267Z,11.37
2022-12-29T22:42:49.058Z,8.37
2022-12-29T22:45:16.060Z,8.40
2022-12-29T22:47:42.884Z,6.80
2022-12-29T22:50:09.979Z,14.50
2022-12-29T22:52:36.850Z,9.93
2022-12-29T22:55:07.083Z,4.40
2022-12-29T22:57:34.875Z,7.70
2022-12-29T23:00:01.771Z,6.73
2022-12-29T23:02:28.778Z,6.97
2022-12-29T23:05:04.862Z,9.37
2022-12-29T23:07:36.405Z,8.00
2022-12-29T23:10:04.939Z,6.73
2022-12-29T23:12:31.882Z,8.13
2022-12-29T23:14:58.895Z,9.43
2022-12-29T23:17:25.739Z,6.93
2022-12-29T23:19:52.997Z,5.70
2022-12-29T23:22:21.048Z,11.90
2022-12-29T23:24:47.780Z,7.87
2022-12-29T23:27:14.539Z,6.77
2022-12-29T23:29:41.354Z,7.30
2022-12-29T23:32:08.381Z,7.80
2022-12-29T23:34:35.136Z,8.20
2022-12-29T23:37:01.974Z,8.73
2022-12-29T23:39:29.503Z,10.53
2022-12-29T23:41:56.586Z,4.53
2022-12-29T23:44:23.415Z,6.77
2022-12-29T23:46:50.218Z,5.70
2022-12-29T23:49:17.113Z,10.00
2022-12-29T23:51:43.865Z,3.50
2022-12-29T23:54:10.699Z,10.43
2022-12-29T23:56:37.474Z,7.47
2022-12-29T23:59:05.844Z,7.80
